createdAt,value
2024-01-21T00:00:37.964Z,2.35
2024-01-21T00:05:51.866Z,2.08
2024-01-21T00:10:55.260Z,1.42
2024-01-21T00:15:58.977Z,1.20
2024-01-21T00:21:02.100Z,1.35
2024-01-21T00:26:05.738Z,1.38
2024-01-21T00:31:08.889Z,1.45
2024-01-21T00:36:21.213Z,1.67
2024-01-21T00:41:24.239Z,1.13
2024-01-21T00:46:27.149Z,1.25
2024-01-21T00:51:30.390Z,1.48
2024-01-21T00:56:33.797Z,1.85
2024-01-21T01:01:39.848Z,2.65
2024-01-21T01:06:43.770Z,2.53
2024-01-21T01:11:46.911Z,2.38
2024-01-21T01:16:49.946Z,2.80
2024-01-21T01:21:53.451Z,2.42
2024-01-21T01:26:56.575Z,2.22
2024-01-21T01:31:59.631Z,4.13
2024-01-21T01:37:02.642Z,2.70
2024-01-21T01:42:05.926Z,2.60
2024-01-21T01:47:10.159Z,4.10
2024-01-21T01:52:16.958Z,4.53
2024-01-21T01:57:22.037Z,3.30
2024-01-21T02:02:25.430Z,5.07
2024-01-21T02:07:28.640Z,6.53
2024-01-21T02:12:44.691Z,4.15
2024-01-21T02:17:50.374Z,5.90
2024-01-21T02:22:58.187Z,4.35
2024-01-21T02:28:01.313Z,5.85
2024-01-21T02:33:04.546Z,3.25
2024-01-21T02:38:07.677Z,3.88
2024-01-21T02:43:29.222Z,4.40
2024-01-21T02:48:32.255Z,6.40
2024-01-21T02:53:35.290Z,4.30
2024-01-21T02:58:38.719Z,7.68
2024-01-21T03:03:41.655Z,4.50
2024-01-21T03:08:44.857Z,5.93
2024-01-21T03:13:47.935Z,3.83
2024-01-21T03:18:50.960Z,6.13
2024-01-21T03:23:54.061Z,3.15
2024-01-21T03:28:58.453Z,3.55
2024-01-21T03:34:01.768Z,4.72
2024-01-21T03:39:05.154Z,4.40
2024-01-21T03:44:08.233Z,7.85
2024-01-21T03:49:11.347Z,4.68
2024-01-21T03:54:14.489Z,3.40
2024-01-21T03:59:18.505Z,3.70
2024-01-21T04:04:21.458Z,3.33
2024-01-21T04:09:25.552Z,6.53
2024-01-21T04:14:28.585Z,7.03
2024-01-21T04:19:32.034Z,3.15
2024-01-21T04:24:53.576Z,3.60
2024-01-21T04:29:56.503Z,4.00
2024-01-21T04:34:59.695Z,4.00
2024-01-21T04:40:02.680Z,4.03
2024-01-21T04:45:08.335Z,3.28
2024-01-21T04:50:13.788Z,5.20
2024-01-21T04:55:16.829Z,2.22
2024-01-21T05:00:21.878Z,4.30
2024-01-21T05:05:25.117Z,4.72
2024-01-21T05:10:28.204Z,4.85
2024-01-21T05:15:31.179Z,3.53
2024-01-21T05:20:34.288Z,4.53
2024-01-21T05:25:37.390Z,2.95
2024-01-21T05:30:40.437Z,2.28
2024-01-21T05:35:43.560Z,3.75
2024-01-21T05:40:46.755Z,2.88
2024-01-21T05:45:49.913Z,2.50
2024-01-21T05:50:53.002Z,4.35
2024-01-21T05:55:56.092Z,2.53
2024-01-21T06:01:00.317Z,3.47
2024-01-21T06:06:03.465Z,2.28
2024-01-21T06:11:06.716Z,3.47
2024-01-21T06:16:09.834Z,3.30
2024-01-21T06:21:12.937Z,3.20
2024-01-21T06:26:21.311Z,4.63
2024-01-21T06:31:24.326Z,3.22
2024-01-21T06:36:27.301Z,2.88
2024-01-21T06:41:30.444Z,4.82
2024-01-21T06:46:33.623Z,4.07
2024-01-21T06:51:44.827Z,3.63
2024-01-21T06:56:48.099Z,2.83
2024-01-21T07:01:52.315Z,4.85
2024-01-21T07:06:55.561Z,4.20
2024-01-21T07:11:58.672Z,2.97
2024-01-21T07:17:05.582Z,5.13
2024-01-21T07:22:08.763Z,3.17
2024-01-21T07:27:11.668Z,3.10
2024-01-21T07:32:14.810Z,3.72
2024-01-21T07:37:17.897Z,3.42
2024-01-21T07:42:20.787Z,2.33
2024-01-21T07:47:23.783Z,4.30
2024-01-21T07:52:26.816Z,3.55
2024-01-21T07:57:29.957Z,4.35
2024-01-21T08:02:33.409Z,4.10
2024-01-21T08:07:36.528Z,3.13
2024-01-21T08:12:39.898Z,3.00
2024-01-21T08:17:42.960Z,2.00
2024-01-21T08:22:46.093Z,4.00
2024-01-21T08:27:49.261Z,2.72
2024-01-21T08:32:52.176Z,4.07
2024-01-21T08:37:55.308Z,3.55
2024-01-21T08:42:58.744Z,2.90
2024-01-21T08:48:01.830Z,4.18
2024-01-21T08:53:05.306Z,2.65
2024-01-21T08:58:08.454Z,2.50
2024-01-21T09:03:13.659Z,2.67
2024-01-21T09:08:16.860Z,2.53
2024-01-21T09:13:20.843Z,3.78
2024-01-21T09:18:24.118Z,2.20
2024-01-21T09:23:27.654Z,3.28
2024-01-21T09:28:30.706Z,3.03
2024-01-21T09:33:33.933Z,2.15
2024-01-21T09:38:37.007Z,2.20
2024-01-21T09:43:45.782Z,3.55
2024-01-21T09:48:52.516Z,1.83
2024-01-21T09:53:55.711Z,3.45
2024-01-21T09:59:00.444Z,2.92
2024-01-21T10:04:04.687Z,4.10
2024-01-21T10:09:19.576Z,2.70
2024-01-21T10:14:22.749Z,3.42
2024-01-21T10:19:35.895Z,3.88
2024-01-21T10:24:40.782Z,3.35
2024-01-21T10:29:45.764Z,1.77
2024-01-21T10:34:53.587Z,3.42
2024-01-21T10:39:57.714Z,4.32
2024-01-21T10:45:03.136Z,3.55
2024-01-21T10:50:09.671Z,2.03
2024-01-21T10:55:12.847Z,2.90
2024-01-21T11:00:19.230Z,3.22
2024-01-21T11:05:25.872Z,2.78
2024-01-21T11:10:30.193Z,2.88
2024-01-21T11:15:33.464Z,2.97
2024-01-21T11:20:36.585Z,2.22
2024-01-21T11:25:39.721Z,2.40
2024-01-21T11:30:42.794Z,2.05
2024-01-21T11:35:45.759Z,1.50
2024-01-21T11:41:06.658Z,1.65
2024-01-21T11:46:10.847Z,2.10
2024-01-21T11:51:13.965Z,1.38
2024-01-21T11:56:17.175Z,1.40
2024-01-21T12:01:21.970Z,1.48
2024-01-21T12:06:26.211Z,1.40
2024-01-21T12:11:39.200Z,1.75
2024-01-21T12:16:45.721Z,2.10
2024-01-21T12:21:49.585Z,1.35
2024-01-21T12:26:56.566Z,2.13
2024-01-21T12:32:18.515Z,1.60
2024-01-21T12:37:21.826Z,2.08
2024-01-21T12:42:24.878Z,1.80
2024-01-21T12:47:27.855Z,2.35
2024-01-21T12:52:30.976Z,1.60
2024-01-21T12:57:34.548Z,2.08
2024-01-21T13:02:40.073Z,1.50
2024-01-21T13:07:43.808Z,2.65
2024-01-21T13:12:47.142Z,1.65
2024-01-21T13:17:52.409Z,1.75
2024-01-21T13:22:55.510Z,1.67
2024-01-21T13:28:16.848Z,1.52
2024-01-21T13:33:29.835Z,2.50
2024-01-21T13:38:35.309Z,3.17
2024-01-21T13:43:38.534Z,1.80
2024-01-21T13:48:41.817Z,2.03
2024-01-21T13:53:48.085Z,2.35
2024-01-21T13:58:51.022Z,2.47
2024-01-21T14:03:54.151Z,1.58
2024-01-21T14:08:57.475Z,1.45
2024-01-21T14:14:00.779Z,1.52
2024-01-21T14:19:04.473Z,2.45
2024-01-21T14:24:07.556Z,1.77
2024-01-21T14:29:36.057Z,1.02
2024-01-21T14:34:39.098Z,1.48
2024-01-21T14:39:42.211Z,1.42
2024-01-21T14:44:45.263Z,1.20
2024-01-21T14:49:48.435Z,1.15
2024-01-21T14:54:51.509Z,1.67
2024-01-21T14:59:54.780Z,2.03
2024-01-21T15:04:57.974Z,1.20
2024-01-21T15:10:01.583Z,2.17
2024-01-21T15:15:29.729Z,1.77
2024-01-21T15:20:33.106Z,2.20
2024-01-21T15:25:36.263Z,2.00
2024-01-21T15:30:44.442Z,1.92
2024-01-21T15:35:47.622Z,2.83
2024-01-21T15:40:50.781Z,1.60
2024-01-21T15:45:53.989Z,1.42
2024-01-21T15:50:58.799Z,2.40
2024-01-21T15:56:01.818Z,1.70
2024-01-21T16:01:05.184Z,1.48
2024-01-21T16:06:08.296Z,1.70
2024-01-21T16:11:32.357Z,1.65
2024-01-21T16:16:35.515Z,1.40
2024-01-21T16:21:38.726Z,1.90
2024-01-21T16:26:42.449Z,1.88
2024-01-21T16:31:46.090Z,1.40
2024-01-21T16:36:49.196Z,1.83
2024-01-21T16:41:52.248Z,1.48
2024-01-21T16:46:55.365Z,1.40
2024-01-21T16:52:08.338Z,1.15
2024-01-21T16:57:11.611Z,2.05
2024-01-21T17:02:19.400Z,1.48
2024-01-21T17:07:22.738Z,1.30
2024-01-21T17:12:34.318Z,1.73
2024-01-21T17:17:41.870Z,1.80
2024-01-21T17:22:45.057Z,1.50
2024-01-21T17:27:48.170Z,1.73
2024-01-21T17:32:51.280Z,2.17
2024-01-21T17:37:54.350Z,1.33
2024-01-21T17:42:57.181Z,1.65
2024-01-21T17:48:00.351Z,1.70
2024-01-21T17:53:03.652Z,1.67
2024-01-21T17:58:06.671Z,1.95
2024-01-21T18:03:09.975Z,1.90
2024-01-21T18:08:13.393Z,2.63
2024-01-21T18:13:16.952Z,1.00
2024-01-21T18:18:24.994Z,0.80
2024-01-21T18:23:30.001Z,2.10
2024-01-21T18:28:33.023Z,1.25
2024-01-21T18:33:38.250Z,2.22
2024-01-21T18:38:42.101Z,1.48
2024-01-21T18:43:45.013Z,1.75
2024-01-21T18:48:48.356Z,0.80
2024-01-21T18:53:51.479Z,1.35
2024-01-21T18:58:55.785Z,2.38
2024-01-21T19:03:59.075Z,1.20
2024-01-21T19:09:02.370Z,1.58
2024-01-21T19:14:05.759Z,1.50
2024-01-21T19:19:13.472Z,0.98
2024-01-21T19:24:16.908Z,2.35
2024-01-21T19:29:20.006Z,0.80
2024-01-21T19:34:23.377Z,0.80
2024-01-21T19:39:26.380Z,1.15
2024-01-21T19:44:30.595Z,1.27
2024-01-21T19:49:33.787Z,1.00
2024-01-21T19:54:37.679Z,1.17
2024-01-21T19:59:41.368Z,1.30
2024-01-21T20:04:44.504Z,1.70
2024-01-21T20:09:47.419Z,1.50
2024-01-21T20:14:50.758Z,1.35
2024-01-21T20:19:53.814Z,1.60
2024-01-21T20:24:57.146Z,1.33
2024-01-21T20:30:06.053Z,1.25
2024-01-21T20:35:10.498Z,1.25
2024-01-21T20:40:13.632Z,1.60
2024-01-21T20:45:16.828Z,1.00
2024-01-21T20:50:19.965Z,1.02
2024-01-21T20:55:34.125Z,1.00
2024-01-21T21:00:37.222Z,1.00
2024-01-21T21:05:40.498Z,1.80
2024-01-21T21:10:43.487Z,0.77
2024-01-21T21:15:46.644Z,0.98
2024-01-21T21:20:49.754Z,0.70
2024-01-21T21:25:52.910Z,1.73
2024-01-21T21:30:55.944Z,1.13
2024-01-21T21:35:59.604Z,1.08
2024-01-21T21:41:21.159Z,1.83
2024-01-21T21:46:24.332Z,1.33
2024-01-21T21:51:27.942Z,0.80
2024-01-21T21:56:31.083Z,1.25
2024-01-21T22:01:34.079Z,1.33
2024-01-21T22:06:37.680Z,1.75
2024-01-21T22:11:40.917Z,1.45
2024-01-21T22:16:44.010Z,1.48
2024-01-21T22:21:48.424Z,1.45
2024-01-21T22:26:52.601Z,1.13
2024-01-21T22:31:56.209Z,1.50
2024-01-21T22:36:59.145Z,1.08
2024-01-21T22:42:02.275Z,1.55
2024-01-21T22:47:06.027Z,0.77
2024-01-21T22:52:09.191Z,0.90
2024-01-21T22:57:12.193Z,0.95
2024-01-21T23:02:15.505Z,0.80
2024-01-21T23:07:18.944Z,1.42
2024-01-21T23:12:21.857Z,1.73
2024-01-21T23:17:25.177Z,1.58
2024-01-21T23:22:28.319Z,1.88
2024-01-21T23:27:31.710Z,1.48
2024-01-21T23:32:34.807Z,1.40
2024-01-21T23:37:38.043Z,1.70
2024-01-21T23:42:41.053Z,2.30
2024-01-21T23:47:44.188Z,1.85
2024-01-21T23:52:47.143Z,1.90
2024-01-21T23:57:50.298Z,0.93
